Time;durP1;ratioP1;P1;durP2;ratioP2;P2;SDS_P1;SDS_P2;PMS_P1;PMS_P2;Temp;Humidity;BMP_temperature;BMP_pressure;BME280_temperature;BME280_humidity;BME280_pressure;Samples;Min_cycle;Max_cycle;Signal;HPM_P1;HPM_P2
2022/07/23 00:00:39;;;;;;;27.45;19.60;;;;;;;19.76;73.14;98891.84;2170238;81;20953;-80
2022/07/23 00:03:39;;;;;;;25.00;20.00;;;;;;;19.65;73.24;98889.91;2170642;81;20874;-80
2022/07/23 00:06:39;;;;;;;25.75;19.77;;;;;;;19.58;73.35;98897.58;2171428;81;20905;-80
2022/07/23 00:09:40;;;;;;;26.37;19.48;;;;;;;19.54;73.49;98902.52;2171248;81;20950;-79
2022/07/23 00:12:40;;;;;;;24.47;20.50;;;;;;;19.48;73.67;98898.66;2171308;82;20910;-80
2022/07/23 00:15:41;;;;;;;23.47;20.00;;;;;;;19.50;73.80;98895.08;2171489;81;20902;-81
2022/07/23 00:18:41;;;;;;;27.37;20.43;;;;;;;19.50;73.98;98899.50;2171127;81;21296;-80
2022/07/23 00:21:41;;;;;;;23.95;21.05;;;;;;;19.45;73.88;98902.25;2171162;81;20885;-80
2022/07/23 00:24:42;;;;;;;24.72;20.57;;;;;;;19.39;74.05;98909.88;2170483;81;20957;-80
2022/07/23 00:27:42;;;;;;;25.37;21.37;;;;;;;19.35;73.95;98912.63;2170246;81;21340;-80
2022/07/23 00:30:43;;;;;;;23.02;20.70;;;;;;;19.29;73.95;98910.13;2170104;81;20941;-80
2022/07/23 00:33:43;;;;;;;21.75;19.42;;;;;;;19.25;74.31;98915.06;2170341;81;20891;-80
2022/07/23 00:36:43;;;;;;;26.33;20.88;;;;;;;19.22;74.48;98905.87;2169901;81;20952;-80
2022/07/23 00:39:44;;;;;;;26.42;20.20;;;;;;;19.28;74.34;98909.70;2170200;81;21020;-80
2022/07/23 00:42:44;;;;;;;22.48;20.23;;;;;;;19.25;74.29;98908.45;2170603;81;20909;-80
2022/07/23 00:45:45;;;;;;;22.00;19.75;;;;;;;19.24;74.27;98906.25;2173095;82;21269;-80
2022/07/23 00:48:45;;;;;;;24.35;19.95;;;;;;;19.18;74.17;98902.87;2173244;81;20974;-80
2022/07/23 00:51:45;;;;;;;23.27;19.05;;;;;;;19.13;74.36;98909.59;2173352;81;20913;-80
2022/07/23 00:54:46;;;;;;;22.90;18.95;;;;;;;19.15;74.60;98907.78;2173343;81;20941;-82
2022/07/23 00:57:46;;;;;;;23.18;18.02;;;;;;;19.22;74.35;98911.16;2173181;81;20890;-82
2022/07/23 01:00:47;;;;;;;23.92;18.77;;;;;;;19.30;74.56;98911.86;2172910;81;20953;-83
2022/07/23 01:03:47;;;;;;;22.30;19.57;;;;;;;19.31;74.34;98913.61;2172293;81;21297;-83
2022/07/23 01:06:47;;;;;;;21.17;18.80;;;;;;;19.26;74.16;98915.03;2172136;82;20940;-83
2022/07/23 01:09:48;;;;;;;20.30;17.98;;;;;;;19.29;74.10;98909.67;2173301;81;20913;-82
2022/07/23 01:12:48;;;;;;;25.68;18.82;;;;;;;19.28;74.20;98910.58;2172942;81;20909;-83
2022/07/23 01:15:49;;;;;;;24.75;18.40;;;;;;;19.25;73.92;98903.16;2173088;81;20910;-83
2022/07/23 01:18:49;;;;;;;21.30;19.10;;;;;;;19.19;73.71;98912.55;2173142;81;21359;-83
2022/07/23 01:21:50;;;;;;;20.92;18.45;;;;;;;19.15;73.95;98909.10;2173483;81;20985;-83
2022/07/23 01:24:50;;;;;;;26.25;19.07;;;;;;;19.15;73.96;98907.78;2173274;81;20902;-82
2022/07/23 01:27:50;;;;;;;25.60;19.15;;;;;;;19.12;73.98;98902.55;2173304;82;20906;-82
2022/07/23 01:30:51;;;;;;;23.50;19.85;;;;;;;19.08;73.68;98901.75;2172884;82;20925;-83
2022/07/23 01:33:51;;;;;;;21.90;19.17;;;;;;;19.01;73.98;98901.43;2172295;81;20950;-83
2022/07/23 01:36:52;;;;;;;21.70;19.50;;;;;;;18.97;74.07;98898.88;2172023;82;20948;-83
2022/07/23 01:39:52;;;;;;;23.47;18.57;;;;;;;18.96;74.29;98900.66;2172458;81;21285;-83
2022/07/23 01:42:52;;;;;;;22.60;19.52;;;;;;;18.89;73.93;98899.49;2172395;81;20933;-83
2022/07/23 01:45:53;;;;;;;56.75;21.90;;;;;;;18.85;74.05;98903.10;2170914;81;20993;-82
2022/07/23 01:48:53;;;;;;;25.10;19.20;;;;;;;18.81;74.75;98900.10;2171096;81;20913;-83
2022/07/23 01:52:00;;;;;;;21.57;18.98;;;;;;;18.82;74.23;98912.42;2170667;82;21337;-83
2022/07/23 01:55:00;;;;;;;21.12;18.77;;;;;;;18.84;74.38;98907.52;2170485;81;20914;-83
2022/07/23 01:58:01;;;;;;;21.37;19.05;;;;;;;18.82;74.23;98908.00;2170266;81;21343;-83
2022/07/23 02:01:01;;;;;;;20.62;18.42;;;;;;;18.89;74.67;98901.69;2170693;82;20933;-83
2022/07/23 02:04:01;;;;;;;20.25;18.20;;;;;;;18.98;74.81;98902.81;2170972;81;20913;-83
2022/07/23 02:07:02;;;;;;;21.33;17.95;;;;;;;19.07;74.13;98903.07;2170679;81;21301;-83
2022/07/23 02:10:02;;;;;;;20.65;18.65;;;;;;;18.95;73.54;98897.59;2170915;81;20925;-83
2022/07/23 02:13:03;;;;;;;20.97;18.77;;;;;;;18.85;73.50;98898.69;2170960;82;20962;-83
2022/07/23 02:16:03;;;;;;;21.85;19.55;;;;;;;18.77;73.66;98896.65;2170526;81;20938;-82
2022/07/23 02:19:04;;;;;;;22.45;19.00;;;;;;;18.71;73.99;98898.09;2170336;81;20952;-82
2022/07/23 02:22:04;;;;;;;179.97;31.68;;;;;;;18.67;74.27;98900.38;2170498;80;21384;-83
2022/07/23 02:25:04;;;;;;;33.65;21.12;;;;;;;18.62;74.40;98906.20;2170164;81;21017;-81
2022/07/23 02:28:05;;;;;;;24.27;19.52;;;;;;;18.59;74.41;98904.91;2171105;81;20905;-83
2022/07/23 02:31:06;;;;;;;23.30;18.15;;;;;;;18.57;74.77;98905.39;2170396;81;20885;-83
2022/07/23 02:34:06;;;;;;;23.65;19.32;;;;;;;18.59;74.90;98909.75;2170873;81;20945;-81
2022/07/23 02:37:08;;;;;;;20.82;18.73;;;;;;;18.44;73.63;98914.88;2170524;81;21012;-82
2022/07/23 02:40:06;;;;;;;23.90;20.37;;;;;;;18.17;73.71;98914.02;2171278;81;20972;-82
2022/07/23 02:43:07;;;;;;;23.95;20.37;;;;;;;17.96;74.36;98911.30;2170354;81;20949;-81
2022/07/23 02:46:07;;;;;;;26.25;19.40;;;;;;;17.81;74.88;98908.47;2170098;81;20933;-78
2022/07/23 02:49:08;;;;;;;24.50;20.17;;;;;;;17.66;75.26;98902.11;2170193;81;20965;-78
2022/07/23 02:52:10;;;;;;;25.62;19.15;;;;;;;17.56;75.81;98907.08;2170235;81;21286;-80
2022/07/23 02:55:08;;;;;;;23.90;19.53;;;;;;;17.45;76.04;98902.41;2170251;81;20953;-78
2022/07/23 02:58:09;;;;;;;22.60;19.40;;;;;;;17.34;76.29;98906.52;2170489;81;20945;-78
2022/07/23 03:01:09;;;;;;;23.10;20.08;;;;;;;17.27;76.82;98906.16;2170895;81;21274;-78
2022/07/23 03:04:10;;;;;;;24.02;19.17;;;;;;;17.24;77.08;98907.96;2171026;81;20897;-78
2022/07/23 03:07:10;;;;;;;22.02;17.80;;;;;;;17.19;77.14;98908.89;2171103;80;20953;-79
2022/07/23 03:10:10;;;;;;;25.65;18.30;;;;;;;17.13;77.41;98910.30;2171013;81;20930;-79
2022/07/23 03:13:11;;;;;;;21.23;17.70;;;;;;;17.11;77.65;98908.58;2171084;81;20961;-80
2022/07/23 03:16:11;;;;;;;22.75;18.67;;;;;;;17.10;77.89;98916.94;2171202;81;20948;-79
2022/07/23 03:19:12;;;;;;;24.55;19.12;;;;;;;17.08;77.93;98915.20;2170897;82;20941;-81
2022/07/23 03:22:12;;;;;;;26.23;19.55;;;;;;;17.05;78.15;98916.13;2171469;81;20953;-81
2022/07/23 03:25:12;;;;;;;24.98;18.60;;;;;;;17.08;78.41;98917.40;2170715;81;20941;-81
2022/07/23 03:28:13;;;;;;;46.37;22.30;;;;;;;17.11;78.61;98909.45;2170789;81;20952;-82
2022/07/23 03:31:13;;;;;;;25.82;20.48;;;;;;;17.19;78.99;98914.17;2170732;81;21332;-82
2022/07/23 03:34:14;;;;;;;28.80;20.15;;;;;;;17.23;78.73;98911.49;2171011;81;20929;-89
2022/07/23 03:37:14;;;;;;;311.43;37.40;;;;;;;17.24;78.65;98904.00;2170857;81;20988;-82
2022/07/23 03:40:14;;;;;;;29.18;19.52;;;;;;;17.35;79.29;98913.99;2171139;81;20910;-80
2022/07/23 03:43:15;;;;;;;24.63;19.12;;;;;;;17.42;78.72;98910.37;2171050;81;21389;-81
2022/07/23 03:46:15;;;;;;;64.35;22.22;;;;;;;17.36;78.60;98906.05;2171379;81;20929;-81
2022/07/23 03:49:16;;;;;;;26.90;20.48;;;;;;;17.38;79.30;98907.35;2171411;81;20909;-82
2022/07/23 03:52:16;;;;;;;24.80;19.27;;;;;;;17.43;79.05;98910.34;2170451;81;20956;-82
2022/07/23 03:55:16;;;;;;;35.45;20.20;;;;;;;17.47;79.13;98909.86;2170050;81;20970;-81
2022/07/23 03:58:17;;;;;;;21.27;18.95;;;;;;;17.51;79.27;98912.88;2170302;81;20980;-82
2022/07/23 04:01:17;;;;;;;25.12;19.23;;;;;;;17.56;79.27;98916.31;2171282;81;20952;-81
2022/07/23 04:04:18;;;;;;;24.63;20.55;;;;;;;17.59;79.28;98909.67;2170660;80;20904;-81
2022/07/23 04:07:18;;;;;;;676.30;77.00;;;;;;;17.65;79.35;98908.70;2170887;81;20984;-82
2022/07/23 04:10:19;;;;;;;47.27;22.93;;;;;;;17.68;79.63;98908.23;2171456;81;20901;-82
2022/07/23 04:13:19;;;;;;;29.72;19.92;;;;;;;17.79;79.96;98906.30;2172137;81;21319;-82
2022/07/23 04:16:19;;;;;;;21.90;19.57;;;;;;;17.90;79.72;98909.22;2170764;82;20923;-81
2022/07/23 04:19:20;;;;;;;26.50;20.20;;;;;;;18.02;79.93;98908.55;2169828;81;20980;-82
2022/07/23 04:22:20;;;;;;;92.95;23.85;;;;;;;18.17;79.85;98913.16;2169812;81;20970;-82
2022/07/23 04:25:20;;;;;;;29.48;20.05;;;;;;;18.37;79.96;98910.61;2170153;82;20948;-81
2022/07/23 04:28:21;;;;;;;21.62;19.32;;;;;;;18.62;79.72;98908.85;2170084;82;20889;-81
2022/07/23 04:31:21;;;;;;;27.67;19.98;;;;;;;18.84;79.48;98906.20;2169967;81;21396;-81
2022/07/23 04:34:22;;;;;;;28.15;19.92;;;;;;;19.20;79.31;98905.03;2171085;81;20972;-82
2022/07/23 04:37:22;;;;;;;24.80;20.62;;;;;;;19.54;78.98;98899.42;2170162;82;21048;-79
2022/07/23 04:40:22;;;;;;;24.82;20.45;;;;;;;19.90;78.50;98895.02;2170452;81;20960;-79
2022/07/23 04:43:23;;;;;;;30.48;24.20;;;;;;;20.22;77.57;98895.55;2171181;81;20913;-80
2022/07/23 04:46:23;;;;;;;22.32;20.08;;;;;;;20.54;76.88;98888.55;2170386;82;21035;-79
2022/07/23 04:49:24;;;;;;;23.75;21.42;;;;;;;20.88;76.38;98894.67;2170741;81;21440;-79
2022/07/23 04:52:24;;;;;;;25.40;22.27;;;;;;;21.16;75.36;98888.55;2170213;81;20922;-79
2022/07/23 04:55:24;;;;;;;34.00;22.70;;;;;;;21.36;74.30;98883.98;2170246;81;21001;-79
2022/07/23 04:58:25;;;;;;;23.35;21.05;;;;;;;21.56;73.71;98890.87;2169784;81;21336;-79
2022/07/23 05:01:25;;;;;;;23.73;21.00;;;;;;;21.71;73.13;98890.87;2170029;81;20894;-80
2022/07/23 05:04:26;;;;;;;25.68;20.85;;;;;;;21.83;73.31;98887.81;2170439;82;20962;-79
2022/07/23 05:07:26;;;;;;;22.42;20.23;;;;;;;21.85;73.06;98895.27;2170258;81;20956;-78
2022/07/23 05:10:26;;;;;;;23.00;20.60;;;;;;;21.95;72.81;98896.70;2170099;81;20916;-80
2022/07/23 05:13:27;;;;;;;37.70;21.50;;;;;;;22.14;71.94;98898.31;2170176;81;20972;-79
2022/07/23 05:16:28;;;;;;;212.55;39.40;;;;;;;22.40;71.67;98896.08;2169812;81;21280;-79
2022/07/23 05:19:28;;;;;;;23.12;20.52;;;;;;;22.67;70.66;98893.80;2169495;81;20956;-78
2022/07/23 05:22:28;;;;;;;22.82;20.48;;;;;;;22.96;69.65;98895.42;2169074;81;20949;-78
2022/07/23 05:25:29;;;;;;;24.80;20.62;;;;;;;23.21;68.59;98890.03;2169432;81;20948;-78
2022/07/23 05:28:29;;;;;;;33.67;21.68;;;;;;;23.45;67.95;98888.23;2169684;81;20910;-78
2022/07/23 05:31:29;;;;;;;41.98;21.82;;;;;;;23.63;66.99;98882.20;2169337;81;20960;-78
2022/07/23 05:34:30;;;;;;;32.70;20.37;;;;;;;23.83;66.99;98880.06;2169067;81;21009;-78
2022/07/23 05:37:30;;;;;;;37.75;19.85;;;;;;;23.97;65.97;98876.36;2168915;81;21332;-78
2022/07/23 05:40:31;;;;;;;68.85;22.80;;;;;;;24.01;66.13;98875.30;2169672;81;20945;-78
2022/07/23 05:43:31;;;;;;;22.40;18.77;;;;;;;24.24;65.92;98868.11;2170316;81;21008;-78
2022/07/23 05:46:31;;;;;;;20.10;17.98;;;;;;;24.50;66.22;98873.71;2170353;81;20948;-78
2022/07/23 05:49:32;;;;;;;20.00;17.90;;;;;;;24.79;65.76;98877.28;2170662;81;20915;-78
2022/07/23 05:52:32;;;;;;;24.85;18.23;;;;;;;25.07;64.43;98880.92;2170522;81;20909;-79
2022/07/23 05:55:32;;;;;;;19.02;16.95;;;;;;;25.26;63.17;98879.63;2171033;81;20973;-78
2022/07/23 05:58:33;;;;;;;20.55;16.57;;;;;;;25.43;63.25;98885.03;2170758;80;21301;-81
2022/07/23 06:01:33;;;;;;;18.67;16.77;;;;;;;25.72;62.31;98876.97;2170641;81;20877;-78
2022/07/23 06:04:34;;;;;;;24.23;18.02;;;;;;;25.89;61.53;98878.34;2170574;81;20893;-78
2022/07/23 06:07:34;;;;;;;18.60;16.70;;;;;;;26.05;61.35;98878.94;2170346;81;21379;-78
2022/07/23 06:10:34;;;;;;;18.12;16.45;;;;;;;26.23;60.88;98873.52;2170022;81;20945;-78
2022/07/23 06:13:35;;;;;;;22.73;17.20;;;;;;;26.40;60.25;98878.03;2169824;81;20929;-78
2022/07/23 06:16:35;;;;;;;17.10;15.53;;;;;;;26.59;60.10;98880.14;2170704;81;20905;-78
2022/07/23 06:19:36;;;;;;;16.82;15.25;;;;;;;26.84;59.44;98881.51;2170660;82;21277;-78
2022/07/23 06:22:36;;;;;;;17.32;15.65;;;;;;;27.03;58.64;98868.91;2170736;81;20946;-79
2022/07/23 06:25:36;;;;;;;15.45;13.98;;;;;;;27.23;58.65;98868.68;2169793;81;20929;-77
2022/07/23 06:28:37;;;;;;;15.25;13.93;;;;;;;27.42;57.53;98867.17;2169840;81;20921;-79
2022/07/23 06:31:37;;;;;;;14.43;13.00;;;;;;;27.65;57.25;98855.17;2170286;80;20970;-77
2022/07/23 06:34:38;;;;;;;16.50;14.00;;;;;;;27.86;56.74;98849.94;2169527;82;20942;-78
2022/07/23 06:37:38;;;;;;;15.03;13.58;;;;;;;28.08;56.20;98846.86;2168757;81;20956;-78
2022/07/23 06:40:39;;;;;;;15.32;13.78;;;;;;;28.29;55.18;98842.05;2168814;81;20996;-77
2022/07/23 06:43:39;;;;;;;17.05;14.60;;;;;;;28.49;55.22;98846.21;2169191;81;21560;-78
2022/07/23 06:46:39;;;;;;;15.32;13.78;;;;;;;28.71;54.50;98844.45;2169182;81;21154;-79
2022/07/23 06:49:41;;;;;;;15.63;13.95;;;;;;;28.87;54.00;98846.59;2169348;81;20917;-77
2022/07/23 06:52:40;;;;;;;19.75;13.65;;;;;;;29.04;54.14;98845.05;2170187;81;20925;-78
2022/07/23 06:55:41;;;;;;;17.70;12.60;;;;;;;29.13;53.42;98841.77;2170070;81;20956;-78
2022/07/23 06:58:41;;;;;;;21.48;12.98;;;;;;;29.36;52.49;98843.45;2169846;82;20905;-79
2022/07/23 07:01:41;;;;;;;13.78;12.40;;;;;;;29.88;50.70;98842.78;2169802;81;21344;-79
2022/07/23 07:04:42;;;;;;;13.48;12.03;;;;;;;29.88;50.70;98842.78;2169906;81;20901;-79
2022/07/23 07:07:42;;;;;;;16.20;11.60;;;;;;;30.12;50.26;98838.47;2168907;81;20988;-79
2022/07/23 07:10:43;;;;;;;13.80;12.03;;;;;;;30.40;49.42;98830.73;2169105;81;20920;-79
2022/07/23 07:13:43;;;;;;;13.00;11.75;;;;;;;30.66;48.88;98832.98;2169260;80;21339;-79
2022/07/23 07:16:43;;;;;;;13.10;11.80;;;;;;;30.93;47.88;98832.85;2169127;81;20913;-80
2022/07/23 07:19:44;;;;;;;12.37;11.28;;;;;;;31.14;47.62;98835.84;2170029;81;20995;-80
2022/07/23 07:22:44;;;;;;;13.10;11.53;;;;;;;31.37;46.84;98831.04;2169750;81;21621;-82
2022/07/23 07:25:45;;;;;;;16.55;14.93;;;;;;;31.62;45.88;98833.64;2170196;81;20909;-79
2022/07/23 07:28:45;;;;;;;12.18;10.88;;;;;;;31.92;44.97;98831.00;2170242;81;20933;-80
2022/07/23 07:31:45;;;;;;;12.18;10.28;;;;;;;32.30;44.15;98834.39;2170621;81;21344;-80
2022/07/23 07:34:46;;;;;;;11.60;10.13;;;;;;;32.51;44.21;98831.86;2170673;81;20981;-80
2022/07/23 07:37:46;;;;;;;10.53;9.45;;;;;;;32.53;43.56;98827.69;2170112;82;21011;-80
2022/07/23 07:40:47;;;;;;;12.65;10.15;;;;;;;32.38;42.69;98822.13;2169785;81;20985;-81
2022/07/23 07:43:47;;;;;;;14.43;10.23;;;;;;;32.29;43.24;98823.70;2169624;81;20905;-80
2022/07/23 07:46:48;;;;;;;12.55;9.65;;;;;;;32.32;42.77;98822.61;2169649;81;20960;-80
2022/07/23 07:49:48;;;;;;;16.62;10.08;;;;;;;32.33;42.75;98817.09;2169192;81;20964;-80
2022/07/23 07:52:48;;;;;;;10.38;9.18;;;;;;;32.43;42.39;98817.23;2168359;81;20909;-79
2022/07/23 07:55:49;;;;;;;13.05;9.58;;;;;;;32.29;40.45;98812.41;2167900;81;20956;-80
2022/07/23 07:58:49;;;;;;;14.78;10.50;;;;;;;32.14;42.58;98809.52;2169879;82;20932;-80
2022/07/23 08:01:49;;;;;;;13.28;10.03;;;;;;;32.18;43.10;98806.95;2167912;82;20905;-80
2022/07/23 08:04:50;;;;;;;10.28;9.38;;;;;;;32.47;42.31;98813.30;2167373;82;20914;-80
2022/07/23 08:07:50;;;;;;;10.18;9.23;;;;;;;32.77;42.22;98817.67;2168374;81;20965;-80
2022/07/23 08:10:51;;;;;;;13.38;9.05;;;;;;;33.05;40.79;98820.90;2168501;82;20913;-80
2022/07/23 08:13:51;;;;;;;12.28;8.78;;;;;;;33.15;40.84;98824.58;2168082;82;20961;-80
2022/07/23 08:16:52;;;;;;;10.82;8.15;;;;;;;33.30;40.60;98827.42;2167951;81;21317;-80
2022/07/23 08:19:52;;;;;;;8.00;7.08;;;;;;;33.38;38.21;98824.95;2170363;81;21297;-79
2022/07/23 08:22:52;;;;;;;8.58;7.83;;;;;;;33.32;36.63;98832.22;2170967;81;20893;-80
2022/07/23 08:25:53;;;;;;;7.75;6.97;;;;;;;33.39;37.69;98828.02;2168953;81;20974;-80
2022/07/23 08:28:53;;;;;;;8.33;7.47;;;;;;;33.58;36.04;98833.27;2167869;81;20925;-79
2022/07/23 08:31:54;;;;;;;10.00;7.62;;;;;;;33.75;35.38;98840.35;2168867;82;20953;-79
2022/07/23 08:34:54;;;;;;;13.40;7.87;;;;;;;33.85;34.01;98844.08;2169155;81;20969;-80
2022/07/23 08:37:54;;;;;;;8.03;7.33;;;;;;;33.95;34.39;98841.95;2169175;81;21376;-80
2022/07/23 08:40:57;;;;;;;9.83;7.42;;;;;;;33.86;33.83;98840.38;2168883;81;21376;-80
2022/07/23 08:43:56;;;;;;;7.35;6.55;;;;;;;33.73;34.06;98840.11;2169435;81;20917;-79
2022/07/23 08:46:56;;;;;;;9.05;6.37;;;;;;;33.82;33.50;98842.12;2169826;81;20969;-79
2022/07/23 08:49:56;;;;;;;9.23;7.20;;;;;;;34.08;33.61;98837.22;2169031;82;20913;-80
2022/07/23 08:52:58;;;;;;;51.02;45.73;;;;;;;34.27;33.78;98840.07;2169749;81;20929;-80
2022/07/23 08:55:57;;;;;;;20.95;19.05;;;;;;;34.34;32.88;98833.66;2170915;81;20953;-79
2022/07/23 08:58:57;;;;;;;9.38;8.58;;;;;;;34.49;33.14;98832.34;2170023;82;21608;-80
2022/07/23 09:02:00;;;;;;;7.60;6.90;;;;;;;34.64;32.68;98831.00;2170874;81;21312;-80
2022/07/23 09:04:58;;;;;;;8.55;7.20;;;;;;;34.66;32.53;98823.59;2170172;81;20917;-79
2022/07/23 09:07:59;;;;;;;7.47;6.78;;;;;;;34.70;31.74;98816.95;2169378;81;20988;-80
2022/07/23 09:10:59;;;;;;;7.22;6.58;;;;;;;34.64;32.02;98806.61;2169998;81;20965;-80
2022/07/23 09:14:01;;;;;;;7.08;6.15;;;;;;;34.47;31.49;98805.37;2169379;82;20941;-80
2022/07/23 09:17:00;;;;;;;16.85;6.85;;;;;;;34.49;31.41;98808.81;2169554;81;21108;-80
2022/07/23 09:20:00;;;;;;;7.97;6.00;;;;;;;34.58;31.57;98804.44;2170101;82;21403;-81
2022/07/23 09:23:03;;;;;;;6.85;6.00;;;;;;;34.84;31.16;98804.92;2171372;82;20965;-80
2022/07/23 09:26:03;;;;;;;10.08;6.72;;;;;;;34.86;30.78;98798.00;2165238;82;21349;-80
2022/07/23 09:29:03;;;;;;;8.68;6.72;;;;;;;34.92;30.88;98801.53;2179989;81;20913;-81
2022/07/23 09:32:07;;;;;;;13.62;6.65;;;;;;;35.13;30.59;98801.82;2180176;81;20897;-81
2022/07/23 09:35:04;;;;;;;7.95;6.72;;;;;;;35.19;30.19;98792.27;2180269;81;21324;-80
2022/07/23 09:38:04;;;;;;;7.65;6.20;;;;;;;35.20;30.74;98789.91;2179605;81;20949;-80
2022/07/23 09:41:05;;;;;;;6.83;6.22;;;;;;;35.26;30.31;98781.22;2170977;81;20917;-81
2022/07/23 09:44:05;;;;;;;16.15;5.67;;;;;;;35.34;30.72;98773.77;2170729;81;20944;-82
2022/07/23 09:47:06;;;;;;;10.72;5.50;;;;;;;35.38;29.67;98769.78;2170927;81;21336;-80
2022/07/23 09:50:08;;;;;;;6.03;5.17;;;;;;;35.42;28.84;98769.36;2173004;81;20906;-81
2022/07/23 09:53:06;;;;;;;18.00;6.37;;;;;;;35.49;27.39;98772.37;2171335;81;20918;-80
2022/07/23 09:56:07;;;;;;;94.30;14.53;;;;;;;35.37;27.95;98770.28;2170305;81;21393;-81
2022/07/23 09:59:11;;;;;;;13.20;6.03;;;;;;;35.58;27.96;98763.91;2169696;81;20959;-80
2022/07/23 10:02:08;;;;;;;5.95;5.35;;;;;;;35.77;27.27;98769.34;2171735;81;20909;-80
2022/07/23 10:05:08;;;;;;;8.10;5.03;;;;;;;35.94;27.13;98771.88;2170040;81;21620;-80
2022/07/23 10:08:08;;;;;;;11.70;5.72;;;;;;;35.88;26.95;98772.45;2169561;81;21024;-80
2022/07/23 10:11:09;;;;;;;92.15;82.72;;;;;;;35.85;27.36;98773.59;2171489;81;20937;-80
2022/07/23 10:14:11;;;;;;;;;;;;;;;35.91;27.25;98766.23;2163283;82;20920;-79
2022/07/23 10:17:11;;;;;;;10.25;7.28;;;;;;;36.05;27.16;98767.16;2170870;82;20094;-80
2022/07/23 10:20:12;;;;;;;8.73;5.92;;;;;;;36.12;26.24;98762.50;2168918;81;20921;-80
2022/07/23 10:23:12;;;;;;;5.90;5.50;;;;;;;36.25;26.02;98758.97;2168734;81;20945;-80
2022/07/23 10:26:13;;;;;;;5.55;4.92;;;;;;;36.35;25.11;98760.70;2169138;81;20953;-79
2022/07/23 10:29:13;;;;;;;6.45;5.28;;;;;;;36.49;24.68;98752.61;2170151;81;21309;-80
2022/07/23 10:32:13;;;;;;;6.42;5.72;;;;;;;36.47;24.73;98755.97;2169642;81;20910;-80
2022/07/23 10:35:14;;;;;;;6.17;5.37;;;;;;;36.55;25.58;98764.25;2169894;81;20965;-80
2022/07/23 10:38:14;;;;;;;5.95;5.10;;;;;;;36.79;25.36;98760.19;2170370;81;21360;-81
2022/07/23 10:41:15;;;;;;;5.50;4.92;;;;;;;36.82;24.70;98762.10;2169584;81;20953;-81
2022/07/23 10:44:15;;;;;;;6.05;5.55;;;;;;;36.71;24.22;98766.34;2171143;81;20925;-79
2022/07/23 10:47:38;;;;;;;6.22;5.60;;;;;;;36.28;24.16;98751.41;2169351;81;21648;-80
2022/07/23 10:50:36;;;;;;;6.00;5.50;;;;;;;35.85;24.68;98743.73;2169848;82;20964;-80
2022/07/23 10:53:37;;;;;;;5.62;5.00;;;;;;;35.78;25.64;98743.91;2170992;82;20936;-81
2022/07/23 10:56:37;;;;;;;9.08;5.90;;;;;;;36.05;25.76;98738.63;2172760;81;20909;-81
2022/07/23 10:59:38;;;;;;;6.20;5.70;;;;;;;35.94;25.57;98733.85;2170933;81;21320;-80
2022/07/23 11:02:38;;;;;;;6.08;5.47;;;;;;;36.12;25.36;98733.47;2171648;81;20913;-81
2022/07/23 11:05:39;;;;;;;6.67;6.08;;;;;;;36.22;25.48;98737.02;2171287;82;20925;-81
2022/07/23 11:08:39;;;;;;;6.70;5.90;;;;;;;36.36;25.15;98741.17;2171748;81;21399;-82
2022/07/23 11:11:40;;;;;;;6.80;5.87;;;;;;;36.24;25.25;98735.52;2171346;81;20973;-80
2022/07/23 11:14:40;;;;;;;7.53;5.97;;;;;;;36.28;25.24;98730.14;2170449;82;20909;-80
2022/07/23 11:17:41;;;;;;;6.20;5.60;;;;;;;36.40;25.33;98722.20;2170805;81;20957;-80
2022/07/23 11:20:41;;;;;;;7.35;6.50;;;;;;;36.81;25.51;98724.17;2171558;82;20952;-80
2022/07/23 11:23:41;;;;;;;8.78;6.10;;;;;;;37.07;25.30;98711.57;2168965;81;20881;-80
2022/07/23 11:26:42;;;;;;;6.80;6.20;;;;;;;37.16;24.75;98705.21;2170561;81;20972;-81
2022/07/23 11:29:42;;;;;;;13.05;10.88;;;;;;;36.82;25.18;98707.70;2170920;81;20954;-81
2022/07/23 11:32:43;;;;;;;16.93;7.87;;;;;;;36.67;25.55;98716.83;2170388;81;20968;-80
2022/07/23 11:35:43;;;;;;;9.50;5.90;;;;;;;36.73;25.06;98711.30;2169418;81;21102;-80
2022/07/23 11:38:43;;;;;;;6.25;5.28;;;;;;;36.94;25.28;98712.44;2169335;81;20984;-80
2022/07/23 11:41:44;;;;;;;6.28;5.78;;;;;;;37.20;24.85;98712.05;2171145;81;20901;-82
2022/07/23 11:44:44;;;;;;;6.87;6.20;;;;;;;37.36;25.07;98707.36;2171201;81;20952;-80
2022/07/23 11:47:45;;;;;;;10.60;6.05;;;;;;;37.45;24.77;98697.41;2170978;81;21008;-79
2022/07/23 11:50:45;;;;;;;6.50;5.90;;;;;;;37.87;24.25;98697.13;2170431;81;20988;-80
2022/07/23 11:53:45;;;;;;;23.87;5.97;;;;;;;38.04;24.00;98696.74;2170182;82;20913;-80
2022/07/23 11:56:46;;;;;;;14.45;7.35;;;;;;;37.96;23.94;98694.47;2171208;82;21289;-80
2022/07/23 11:59:46;;;;;;;6.42;5.80;;;;;;;37.95;24.11;98692.25;2168432;81;20909;-81
2022/07/23 12:02:47;;;;;;;6.42;5.87;;;;;;;38.03;23.92;98684.13;2168900;81;20898;-80
2022/07/23 12:05:47;;;;;;;7.05;5.70;;;;;;;37.89;24.02;98684.20;2169010;82;20985;-80
2022/07/23 12:08:47;;;;;;;6.35;5.85;;;;;;;37.85;23.65;98680.09;2168275;81;20979;-80
2022/07/23 12:11:51;;;;;;;5.65;5.22;;;;;;;37.97;23.96;98673.02;2169719;81;20964;-79
2022/07/23 12:14:51;;;;;;;6.35;5.03;;;;;;;37.91;23.84;98668.55;2170852;82;21307;-80
2022/07/23 12:17:52;;;;;;;6.37;5.78;;;;;;;37.96;23.96;98668.58;2170477;81;20929;-79
2022/07/23 12:20:52;;;;;;;9.73;5.65;;;;;;;38.04;24.20;98655.02;2170657;82;20988;-80
2022/07/23 12:23:53;;;;;;;7.33;5.25;;;;;;;38.03;23.66;98658.25;2171492;82;20929;-81
2022/07/23 12:26:53;;;;;;;7.58;5.67;;;;;;;37.87;23.44;98649.45;2170591;81;20893;-81
2022/07/23 12:29:53;;;;;;;6.97;5.78;;;;;;;37.51;23.72;98649.13;2170838;82;20913;-80
2022/07/23 12:32:54;;;;;;;7.33;5.87;;;;;;;37.12;24.51;98652.11;2171365;81;20914;-80
2022/07/23 12:35:55;;;;;;;7.08;5.33;;;;;;;36.95;24.70;98647.00;2171714;81;20929;-81
2022/07/23 12:38:55;;;;;;;5.97;5.47;;;;;;;36.65;25.39;98648.66;2170814;81;21005;-82
2022/07/23 12:41:56;;;;;;;6.50;5.90;;;;;;;36.40;25.68;98647.45;2171316;81;20922;-80
2022/07/23 12:44:55;;;;;;;6.65;6.05;;;;;;;36.09;25.83;98645.97;2172080;81;21253;-81
2022/07/23 12:47:57;;;;;;;6.28;5.50;;;;;;;36.31;25.81;98641.55;2171411;82;20992;-81
2022/07/23 12:50:57;;;;;;;6.10;5.50;;;;;;;36.64;25.20;98634.20;2171635;82;20909;-81
2022/07/23 12:53:57;;;;;;;11.63;5.65;;;;;;;36.85;24.70;98633.11;2171679;81;21309;-81
2022/07/23 12:56:57;;;;;;;7.33;5.95;;;;;;;36.96;24.30;98621.50;2171937;81;20913;-81
2022/07/23 12:59:57;;;;;;;6.97;5.55;;;;;;;36.66;24.29;98622.67;2171339;81;20980;-81
2022/07/23 13:02:58;;;;;;;6.17;5.47;;;;;;;36.66;24.85;98619.95;2171401;81;20934;-81
2022/07/23 13:05:58;;;;;;;6.60;4.97;;;;;;;36.53;24.90;98622.17;2171572;81;20913;-81
2022/07/23 13:08:59;;;;;;;6.28;4.92;;;;;;;36.47;24.35;98624.14;2171194;81;21028;-80
2022/07/23 13:11:59;;;;;;;5.97;5.15;;;;;;;36.71;24.28;98613.20;2170904;81;20913;-80
2022/07/23 13:14:59;;;;;;;5.90;5.20;;;;;;;36.99;23.19;98604.88;2170390;81;21424;-81
2022/07/23 13:18:00;;;;;;;5.50;5.00;;;;;;;37.04;23.42;98601.69;2171191;81;20953;-80
2022/07/23 13:21:00;;;;;;;5.58;5.00;;;;;;;37.02;23.43;98600.98;2171136;81;20961;-80
2022/07/23 13:24:01;;;;;;;5.65;5.05;;;;;;;36.88;23.39;98599.66;2171577;81;21265;-80
2022/07/23 13:27:01;;;;;;;6.08;5.58;;;;;;;36.82;23.81;98609.80;2170898;81;20910;-80
2022/07/23 13:30:02;;;;;;;5.60;5.05;;;;;;;36.84;23.83;98609.64;2170518;82;20981;-79
2022/07/23 13:33:02;;;;;;;7.03;5.40;;;;;;;36.85;23.82;98612.71;2170215;81;20917;-80
2022/07/23 13:36:03;;;;;;;22.42;16.55;;;;;;;36.76;24.14;98609.05;2170034;81;20933;-82
2022/07/23 13:39:03;;;;;;;8.00;5.85;;;;;;;36.64;24.34;98611.09;2169910;81;21032;-80
2022/07/23 13:42:03;;;;;;;8.30;5.78;;;;;;;36.56;23.93;98604.20;2170384;81;20921;-79
2022/07/23 13:45:03;;;;;;;7.58;5.33;;;;;;;36.41;24.62;98611.11;2170832;81;21297;-80
2022/07/23 13:48:04;;;;;;;7.15;5.20;;;;;;;36.22;24.47;98612.53;2170488;81;20976;-82
2022/07/23 13:51:04;;;;;;;6.40;5.80;;;;;;;35.98;24.57;98611.69;2170951;82;20917;-79
2022/07/23 13:54:05;;;;;;;7.05;5.80;;;;;;;35.69;25.02;98612.59;2171171;82;20934;-79
2022/07/23 13:57:05;;;;;;;7.12;5.47;;;;;;;35.41;25.52;98600.73;2171048;81;20890;-79